sensor_id;sensor_type;location;lat;lon;timestamp;pressure;altitude;pressure_sealevel;temperature;humidity
22964;BME280;11648;49.306;6.934;2022-07-29T00:02:14;98202.50;;;24.27;41.31
22964;BME280;11648;49.306;6.934;2022-07-29T00:04:41;98202.59;;;24.26;41.31
22964;BME280;11648;49.306;6.934;2022-07-29T00:07:08;98200.78;;;24.26;41.58
22964;BME280;11648;49.306;6.934;2022-07-29T00:09:36;98195.50;;;24.25;41.32
22964;BME280;11648;49.306;6.934;2022-07-29T00:12:21;98199.38;;;24.21;41.85
22964;BME280;11648;49.306;6.934;2022-07-29T00:14:52;98196.06;;;24.17;41.59
22964;BME280;11648;49.306;6.934;2022-07-29T00:17:18;98188.16;;;24.14;41.69
22964;BME280;11648;49.306;6.934;2022-07-29T00:19:45;98190.53;;;24.19;41.54
22964;BME280;11648;49.306;6.934;2022-07-29T00:22:11;98198.31;;;24.23;41.35
22964;BME280;11648;49.306;6.934;2022-07-29T00:24:38;98194.19;;;24.18;41.03
22964;BME280;11648;49.306;6.934;2022-07-29T00:27:05;98194.84;;;24.21;41.14
22964;BME280;11648;49.306;6.934;2022-07-29T00:29:32;98190.22;;;24.23;41.13
22964;BME280;11648;49.306;6.934;2022-07-29T00:32:01;98186.78;;;24.21;40.97
22964;BME280;11648;49.306;6.934;2022-07-29T00:34:28;98185.28;;;24.17;40.98
22964;BME280;11648;49.306;6.934;2022-07-29T00:37:12;98180.75;;;24.18;41.07
22964;BME280;11648;49.306;6.934;2022-07-29T00:39:39;98171.84;;;24.17;41.18
22964;BME280;11648;49.306;6.934;2022-07-29T00:42:06;98171.19;;;24.14;41.14
22964;BME280;11648;49.306;6.934;2022-07-29T00:44:37;98170.72;;;24.32;41.19
22964;BME280;11648;49.306;6.934;2022-07-29T00:47:04;98175.72;;;24.13;41.55
22964;BME280;11648;49.306;6.934;2022-07-29T00:49:31;98182.25;;;24.09;41.97
22964;BME280;11648;49.306;6.934;2022-07-29T00:52:01;98179.13;;;24.02;42.26
22964;BME280;11648;49.306;6.934;2022-07-29T00:54:28;98177.19;;;23.92;42.49
22964;BME280;11648;49.306;6.934;2022-07-29T00:56:57;98182.09;;;23.85;42.82
22964;BME280;11648;49.306;6.934;2022-07-29T00:59:26;98181.66;;;23.79;42.79
22964;BME280;11648;49.306;6.934;2022-07-29T01:02:01;98176.50;;;23.76;42.46
22964;BME280;11648;49.306;6.934;2022-07-29T01:04:29;98181.88;;;23.76;42.69
22964;BME280;11648;49.306;6.934;2022-07-29T01:06:57;98181.13;;;23.74;42.49
22964;BME280;11648;49.306;6.934;2022-07-29T01:09:25;98185.84;;;23.70;42.51
22964;BME280;11648;49.306;6.934;2022-07-29T01:12:15;98186.91;;;23.68;42.52
22964;BME280;11648;49.306;6.934;2022-07-29T01:14:43;98183.25;;;23.69;42.63
22964;BME280;11648;49.306;6.934;2022-07-29T01:17:15;98193.06;;;23.70;42.82
22964;BME280;11648;49.306;6.934;2022-07-29T01:22:37;98178.53;;;23.59;42.73
22964;BME280;11648;49.306;6.934;2022-07-29T01:30:30;98192.75;;;23.21;44.85
22964;BME280;11648;49.306;6.934;2022-07-29T01:33:02;98187.13;;;23.11;45.43
22964;BME280;11648;49.306;6.934;2022-07-29T01:35:35;98196.75;;;23.01;45.15
22964;BME280;11648;49.306;6.934;2022-07-29T01:38:17;98186.09;;;22.99;45.42
22964;BME280;11648;49.306;6.934;2022-07-29T01:41:15;98190.16;;;22.92;45.96
22964;BME280;11648;49.306;6.934;2022-07-29T01:43:57;98190.75;;;22.83;45.72
22964;BME280;11648;49.306;6.934;2022-07-29T01:46:29;98190.75;;;22.83;45.12
22964;BME280;11648;49.306;6.934;2022-07-29T01:49:02;98181.91;;;22.81;45.25
22964;BME280;11648;49.306;6.934;2022-07-29T01:51:51;98183.00;;;22.79;45.64
22964;BME280;11648;49.306;6.934;2022-07-29T01:54:35;98184.06;;;22.76;45.88
22964;BME280;11648;49.306;6.934;2022-07-29T01:57:04;98187.47;;;22.64;45.35
22964;BME280;11648;49.306;6.934;2022-07-29T01:59:34;98182.97;;;22.64;45.96
22964;BME280;11648;49.306;6.934;2022-07-29T02:02:02;98179.84;;;22.58;46.20
22964;BME280;11648;49.306;6.934;2022-07-29T02:04:30;98185.28;;;22.56;45.95
22964;BME280;11648;49.306;6.934;2022-07-29T02:07:01;98178.78;;;22.60;45.45
22964;BME280;11648;49.306;6.934;2022-07-29T02:09:29;98180.31;;;22.64;45.40
22964;BME280;11648;49.306;6.934;2022-07-29T02:11:57;98182.91;;;22.66;45.21
22964;BME280;11648;49.306;6.934;2022-07-29T02:14:28;98178.41;;;22.67;45.41
22964;BME280;11648;49.306;6.934;2022-07-29T02:16:58;98185.50;;;22.68;45.53
22964;BME280;11648;49.306;6.934;2022-07-29T02:19:27;98176.88;;;22.62;45.43
22964;BME280;11648;49.306;6.934;2022-07-29T02:21:56;98181.44;;;22.60;46.23
22964;BME280;11648;49.306;6.934;2022-07-29T02:24:25;98189.50;;;22.60;46.33
22964;BME280;11648;49.306;6.934;2022-07-29T02:26:53;98188.16;;;22.53;46.75
22964;BME280;11648;49.306;6.934;2022-07-29T02:29:22;98189.44;;;22.48;46.56
22964;BME280;11648;49.306;6.934;2022-07-29T02:31:50;98198.25;;;22.36;47.53
22964;BME280;11648;49.306;6.934;2022-07-29T02:34:19;98190.47;;;22.31;47.48
22964;BME280;11648;49.306;6.934;2022-07-29T02:36:48;98197.09;;;22.26;47.77
22964;BME280;11648;49.306;6.934;2022-07-29T02:39:17;98200.84;;;22.23;48.20
22964;BME280;11648;49.306;6.934;2022-07-29T02:41:47;98195.94;;;22.15;48.24
22964;BME280;11648;49.306;6.934;2022-07-29T02:44:16;98192.59;;;22.12;48.14
22964;BME280;11648;49.306;6.934;2022-07-29T02:47:17;98188.38;;;22.08;48.48
22964;BME280;11648;49.306;6.934;2022-07-29T02:50:06;98182.59;;;22.00;48.49
22964;BME280;11648;49.306;6.934;2022-07-29T02:57:52;98191.53;;;21.85;48.44
22964;BME280;11648;49.306;6.934;2022-07-29T03:00:23;98198.63;;;21.86;48.26
22964;BME280;11648;49.306;6.934;2022-07-29T03:02:55;98199.50;;;21.86;48.28
22964;BME280;11648;49.306;6.934;2022-07-29T03:05:22;98193.34;;;21.84;48.28
22964;BME280;11648;49.306;6.934;2022-07-29T03:07:56;98201.59;;;21.81;48.45
22964;BME280;11648;49.306;6.934;2022-07-29T03:10:25;98199.00;;;21.80;48.29
22964;BME280;11648;49.306;6.934;2022-07-29T03:12:54;98202.84;;;21.76;48.83
22964;BME280;11648;49.306;6.934;2022-07-29T03:15:21;98207.41;;;21.74;48.50
22964;BME280;11648;49.306;6.934;2022-07-29T03:17:51;98208.72;;;21.66;48.96
22964;BME280;11648;49.306;6.934;2022-07-29T03:20:19;98199.13;;;21.62;48.98
22964;BME280;11648;49.306;6.934;2022-07-29T03:22:46;98204.13;;;21.54;49.44
22964;BME280;11648;49.306;6.934;2022-07-29T03:25:17;98205.25;;;21.50;49.82
22964;BME280;11648;49.306;6.934;2022-07-29T03:27:44;98206.56;;;21.43;50.08
22964;BME280;11648;49.306;6.934;2022-07-29T03:30:12;98201.38;;;21.40;50.47
22964;BME280;11648;49.306;6.934;2022-07-29T03:32:49;98206.25;;;21.34;50.41
22964;BME280;11648;49.306;6.934;2022-07-29T03:35:18;98208.19;;;21.30;50.40
22964;BME280;11648;49.306;6.934;2022-07-29T03:37:45;98217.09;;;21.31;50.53
22964;BME280;11648;49.306;6.934;2022-07-29T03:40:16;98219.88;;;21.29;50.18
22964;BME280;11648;49.306;6.934;2022-07-29T03:42:45;98218.06;;;21.30;50.35
22964;BME280;11648;49.306;6.934;2022-07-29T03:45:17;98216.72;;;21.23;50.64
22964;BME280;11648;49.306;6.934;2022-07-29T03:47:48;98214.09;;;21.21;50.47
22964;BME280;11648;49.306;6.934;2022-07-29T03:50:21;98218.78;;;21.17;50.46
22964;BME280;11648;49.306;6.934;2022-07-29T03:52:48;98218.84;;;21.16;50.74
22964;BME280;11648;49.306;6.934;2022-07-29T03:55:15;98211.25;;;21.08;51.20
22964;BME280;11648;49.306;6.934;2022-07-29T03:57:44;98218.66;;;21.03;51.37
22964;BME280;11648;49.306;6.934;2022-07-29T04:00:11;98219.72;;;21.01;51.15
22964;BME280;11648;49.306;6.934;2022-07-29T04:02:38;98214.34;;;21.01;51.23
22964;BME280;11648;49.306;6.934;2022-07-29T04:05:11;98221.41;;;21.02;51.32
22964;BME280;11648;49.306;6.934;2022-07-29T04:07:38;98219.72;;;21.01;51.41
22964;BME280;11648;49.306;6.934;2022-07-29T04:10:05;98219.03;;;20.97;51.33
22964;BME280;11648;49.306;6.934;2022-07-29T04:12:32;98219.59;;;21.02;51.29
22964;BME280;11648;49.306;6.934;2022-07-29T04:14:58;98224.44;;;20.96;51.43
22964;BME280;11648;49.306;6.934;2022-07-29T04:17:25;98218.22;;;20.95;51.45
22964;BME280;11648;49.306;6.934;2022-07-29T04:19:51;98222.19;;;20.88;51.98
22964;BME280;11648;49.306;6.934;2022-07-29T04:22:18;98231.03;;;20.90;51.85
22964;BME280;11648;49.306;6.934;2022-07-29T04:24:44;98225.31;;;20.96;51.51
22964;BME280;11648;49.306;6.934;2022-07-29T04:27:11;98233.25;;;20.98;51.50
22964;BME280;11648;49.306;6.934;2022-07-29T04:29:38;98230.31;;;21.02;51.45
22964;BME280;11648;49.306;6.934;2022-07-29T04:32:23;98229.00;;;21.09;51.03
22964;BME280;11648;49.306;6.934;2022-07-29T04:34:50;98228.88;;;21.12;50.94
22964;BME280;11648;49.306;6.934;2022-07-29T04:37:16;98230.78;;;21.26;50.93
22964;BME280;11648;49.306;6.934;2022-07-29T04:39:43;98239.47;;;21.45;50.24
22964;BME280;11648;49.306;6.934;2022-07-29T04:42:10;98235.81;;;21.62;50.18
22964;BME280;11648;49.306;6.934;2022-07-29T04:44:36;98233.94;;;21.78;49.65
22964;BME280;11648;49.306;6.934;2022-07-29T04:47:07;98235.72;;;21.93;49.98
22964;BME280;11648;49.306;6.934;2022-07-29T04:49:37;98232.22;;;22.07;49.91
22964;BME280;11648;49.306;6.934;2022-07-29T04:52:05;98233.16;;;22.06;49.80
22964;BME280;11648;49.306;6.934;2022-07-29T04:54:31;98232.81;;;22.12;49.85
22964;BME280;11648;49.306;6.934;2022-07-29T04:56:58;98239.31;;;22.22;49.62
22964;BME280;11648;49.306;6.934;2022-07-29T04:59:24;98237.03;;;22.30;49.15
22964;BME280;11648;49.306;6.934;2022-07-29T05:01:52;98240.47;;;22.46;48.14
22964;BME280;11648;49.306;6.934;2022-07-29T05:04:19;98245.47;;;22.52;48.39
22964;BME280;11648;49.306;6.934;2022-07-29T05:06:47;98238.31;;;22.67;47.86
22964;BME280;11648;49.306;6.934;2022-07-29T05:09:13;98238.94;;;22.85;48.07
22964;BME280;11648;49.306;6.934;2022-07-29T05:11:40;98238.84;;;23.00;47.80
22964;BME280;11648;49.306;6.934;2022-07-29T05:14:07;98243.34;;;23.00;47.25
22964;BME280;11648;49.306;6.934;2022-07-29T05:16:33;98245.22;;;23.26;47.74
22964;BME280;11648;49.306;6.934;2022-07-29T05:19:00;98244.13;;;23.43;47.68
22964;BME280;11648;49.306;6.934;2022-07-29T05:23:53;98240.66;;;23.68;47.51
22964;BME280;11648;49.306;6.934;2022-07-29T05:26:20;98239.25;;;24.01;46.93
22964;BME280;11648;49.306;6.934;2022-07-29T05:28:46;98226.22;;;24.08;45.62
22964;BME280;11648;49.306;6.934;2022-07-29T05:31:13;98232.19;;;24.26;45.63
22964;BME280;11648;49.306;6.934;2022-07-29T05:33:41;98234.13;;;24.49;45.22
22964;BME280;11648;49.306;6.934;2022-07-29T05:36:08;98238.00;;;24.45;45.37
22964;BME280;11648;49.306;6.934;2022-07-29T05:38:35;98241.78;;;24.68;44.93
22964;BME280;11648;49.306;6.934;2022-07-29T05:41:03;98240.22;;;25.01;44.64
22964;BME280;11648;49.306;6.934;2022-07-29T05:43:29;98237.69;;;25.24;44.11
22964;BME280;11648;49.306;6.934;2022-07-29T05:45:56;98242.81;;;25.39;42.93
22964;BME280;11648;49.306;6.934;2022-07-29T05:48:24;98235.47;;;25.65;42.02
22964;BME280;11648;49.306;6.934;2022-07-29T05:50:51;98240.28;;;25.73;42.86
22964;BME280;11648;49.306;6.934;2022-07-29T05:53:17;98245.44;;;25.76;42.75
22964;BME280;11648;49.306;6.934;2022-07-29T05:55:48;98246.91;;;26.03;42.68
22964;BME280;11648;49.306;6.934;2022-07-29T05:58:15;98242.22;;;26.40;42.03
22964;BME280;11648;49.306;6.934;2022-07-29T06:00:41;98234.28;;;26.50;41.42
22964;BME280;11648;49.306;6.934;2022-07-29T06:03:08;98229.78;;;26.95;40.84
22964;BME280;11648;49.306;6.934;2022-07-29T06:05:35;98235.25;;;27.27;39.89
22964;BME280;11648;49.306;6.934;2022-07-29T06:08:01;98225.16;;;27.51;38.31
22964;BME280;11648;49.306;6.934;2022-07-29T06:10:28;98225.78;;;27.75;37.62
22964;BME280;11648;49.306;6.934;2022-07-29T06:12:55;98223.63;;;27.69;37.23
22964;BME280;11648;49.306;6.934;2022-07-29T06:15:21;98231.56;;;27.28;37.69
22964;BME280;11648;49.306;6.934;2022-07-29T06:17:48;98230.69;;;27.27;37.87
22964;BME280;11648;49.306;6.934;2022-07-29T06:20:30;98232.41;;;27.39;37.24
22964;BME280;11648;49.306;6.934;2022-07-29T06:22:57;98230.13;;;27.01;38.18
22964;BME280;11648;49.306;6.934;2022-07-29T06:25:24;98228.16;;;27.15;38.10
22964;BME280;11648;49.306;6.934;2022-07-29T06:27:51;98234.84;;;27.42;38.23
22964;BME280;11648;49.306;6.934;2022-07-29T06:30:18;98235.47;;;27.46;38.43
22964;BME280;11648;49.306;6.934;2022-07-29T06:32:45;98233.91;;;27.32;37.55
22964;BME280;11648;49.306;6.934;2022-07-29T06:35:11;98231.06;;;27.45;37.91
22964;BME280;11648;49.306;6.934;2022-07-29T06:37:58;98237.34;;;28.09;37.48
22964;BME280;11648;49.306;6.934;2022-07-29T06:40:25;98241.09;;;28.59;36.11
22964;BME280;11648;49.306;6.934;2022-07-29T06:43:11;98242.06;;;29.09;35.50
22964;BME280;11648;49.306;6.934;2022-07-29T06:45:38;98239.47;;;29.38;34.57
22964;BME280;11648;49.306;6.934;2022-07-29T06:48:08;98239.19;;;29.51;34.44
22964;BME280;11648;49.306;6.934;2022-07-29T06:50:35;98236.66;;;29.59;33.94
22964;BME280;11648;49.306;6.934;2022-07-29T06:53:01;98226.56;;;29.99;33.95
22964;BME280;11648;49.306;6.934;2022-07-29T06:55:28;98223.97;;;30.07;33.68
22964;BME280;11648;49.306;6.934;2022-07-29T06:57:55;98223.50;;;29.83;33.58
22964;BME280;11648;49.306;6.934;2022-07-29T07:00:21;98230.69;;;30.03;33.83
22964;BME280;11648;49.306;6.934;2022-07-29T07:02:48;98222.28;;;29.87;32.67
22964;BME280;11648;49.306;6.934;2022-07-29T07:05:15;98224.25;;;30.14;32.84
22964;BME280;11648;49.306;6.934;2022-07-29T07:07:41;98228.66;;;30.44;32.59
22964;BME280;11648;49.306;6.934;2022-07-29T07:10:08;98231.91;;;30.94;31.47
22964;BME280;11648;49.306;6.934;2022-07-29T07:12:35;98230.47;;;31.09;31.62
22964;BME280;11648;49.306;6.934;2022-07-29T07:15:01;98227.94;;;31.52;30.45
22964;BME280;11648;49.306;6.934;2022-07-29T07:17:28;98231.16;;;31.83;30.45
22964;BME280;11648;49.306;6.934;2022-07-29T07:19:55;98226.09;;;31.70;30.52
22964;BME280;11648;49.306;6.934;2022-07-29T07:22:21;98220.78;;;32.40;29.80
22964;BME280;11648;49.306;6.934;2022-07-29T07:24:48;98222.28;;;32.16;29.71
22964;BME280;11648;49.306;6.934;2022-07-29T07:27:14;98227.06;;;32.14;29.89
22964;BME280;11648;49.306;6.934;2022-07-29T07:29:41;98219.78;;;31.88;30.50
22964;BME280;11648;49.306;6.934;2022-07-29T07:32:09;98221.59;;;31.79;29.82
22964;BME280;11648;49.306;6.934;2022-07-29T07:34:36;98227.34;;;31.94;30.09
22964;BME280;11648;49.306;6.934;2022-07-29T07:37:05;98231.22;;;32.26;29.25
22964;BME280;11648;49.306;6.934;2022-07-29T07:39:31;98232.56;;;32.22;29.96
22964;BME280;11648;49.306;6.934;2022-07-29T07:41:58;98227.00;;;32.50;29.29
22964;BME280;11648;49.306;6.934;2022-07-29T07:44:25;98229.09;;;32.82;28.51
22964;BME280;11648;49.306;6.934;2022-07-29T07:46:51;98225.03;;;33.11;28.77
22964;BME280;11648;49.306;6.934;2022-07-29T07:49:20;98226.50;;;33.40;28.08
22964;BME280;11648;49.306;6.934;2022-07-29T07:51:47;98218.00;;;33.59;27.91
22964;BME280;11648;49.306;6.934;2022-07-29T07:54:16;98228.19;;;34.07;27.50
22964;BME280;11648;49.306;6.934;2022-07-29T07:56:46;98210.41;;;33.87;26.67
22964;BME280;11648;49.306;6.934;2022-07-29T07:59:18;98223.38;;;33.85;27.21
22964;BME280;11648;49.306;6.934;2022-07-29T08:01:44;98224.44;;;34.08;27.26
22964;BME280;11648;49.306;6.934;2022-07-29T08:04:21;98223.63;;;34.15;26.65
22964;BME280;11648;49.306;6.934;2022-07-29T08:06:53;98227.16;;;33.84;27.17
22964;BME280;11648;49.306;6.934;2022-07-29T08:09:24;98232.56;;;33.67;27.19
22964;BME280;11648;49.306;6.934;2022-07-29T08:11:57;98230.22;;;33.89;27.09
22964;BME280;11648;49.306;6.934;2022-07-29T08:14:24;98240.53;;;33.61;27.64
22964;BME280;11648;49.306;6.934;2022-07-29T08:16:51;98242.13;;;33.21;27.63
22964;BME280;11648;49.306;6.934;2022-07-29T08:19:18;98243.94;;;32.87;28.31
22964;BME280;11648;49.306;6.934;2022-07-29T08:21:45;98240.13;;;32.72;29.08
22964;BME280;11648;49.306;6.934;2022-07-29T08:24:11;98246.03;;;33.19;28.13
22964;BME280;11648;49.306;6.934;2022-07-29T08:26:56;98239.31;;;34.21;27.51
22964;BME280;11648;49.306;6.934;2022-07-29T08:29:23;98232.69;;;35.11;26.23
22964;BME280;11648;49.306;6.934;2022-07-29T08:31:50;98233.09;;;34.92;26.48
22964;BME280;11648;49.306;6.934;2022-07-29T08:34:17;98233.97;;;35.40;25.73
22964;BME280;11648;49.306;6.934;2022-07-29T08:36:51;98230.16;;;35.49;25.52
22964;BME280;11648;49.306;6.934;2022-07-29T08:39:18;98232.13;;;34.69;26.24
22964;BME280;11648;49.306;6.934;2022-07-29T08:41:44;98232.75;;;35.42;24.96
22964;BME280;11648;49.306;6.934;2022-07-29T08:44:22;98237.53;;;35.79;24.33
22964;BME280;11648;49.306;6.934;2022-07-29T08:46:56;98234.06;;;35.85;23.87
22964;BME280;11648;49.306;6.934;2022-07-29T08:49:23;98230.13;;;36.33;23.78
22964;BME280;11648;49.306;6.934;2022-07-29T08:51:50;98230.63;;;36.37;23.19
22964;BME280;11648;49.306;6.934;2022-07-29T08:54:18;98236.06;;;37.26;22.65
22964;BME280;11648;49.306;6.934;2022-07-29T08:56:48;98234.09;;;37.85;22.12
22964;BME280;11648;49.306;6.934;2022-07-29T08:59:19;98231.78;;;38.25;22.01
22964;BME280;11648;49.306;6.934;2022-07-29T09:01:48;98230.06;;;37.67;22.10
22964;BME280;11648;49.306;6.934;2022-07-29T09:04:20;98232.84;;;37.37;22.55
22964;BME280;11648;49.306;6.934;2022-07-29T09:06:49;98225.63;;;37.36;21.83
22964;BME280;11648;49.306;6.934;2022-07-29T09:09:17;98224.97;;;37.99;21.61
22964;BME280;11648;49.306;6.934;2022-07-29T09:11:44;98227.34;;;39.00;20.75
22964;BME280;11648;49.306;6.934;2022-07-29T09:14:12;98227.34;;;39.76;19.64
22964;BME280;11648;49.306;6.934;2022-07-29T09:16:55;98227.63;;;41.32;18.31
22964;BME280;11648;49.306;6.934;2022-07-29T09:19:25;98224.63;;;41.47;17.98
22964;BME280;11648;49.306;6.934;2022-07-29T09:21:53;98221.94;;;39.20;19.24
22964;BME280;11648;49.306;6.934;2022-07-29T09:24:43;98228.75;;;40.13;18.74
22964;BME280;11648;49.306;6.934;2022-07-29T09:30:08;98219.72;;;41.49;17.40
22964;BME280;11648;49.306;6.934;2022-07-29T09:32:57;98210.97;;;42.03;16.68
22964;BME280;11648;49.306;6.934;2022-07-29T09:35:25;98222.13;;;41.38;17.93
22964;BME280;11648;49.306;6.934;2022-07-29T09:37:52;98213.94;;;42.57;16.95
22964;BME280;11648;49.306;6.934;2022-07-29T09:40:24;98220.09;;;44.00;15.95
22964;BME280;11648;49.306;6.934;2022-07-29T09:42:51;98212.81;;;44.82;15.05
22964;BME280;11648;49.306;6.934;2022-07-29T09:45:45;98213.63;;;45.52;14.74
22964;BME280;11648;49.306;6.934;2022-07-29T09:48:24;98215.16;;;46.11;13.84
22964;BME280;11648;49.306;6.934;2022-07-29T09:50:51;98203.78;;;46.12;13.46
22964;BME280;11648;49.306;6.934;2022-07-29T09:53:32;98212.22;;;44.91;14.03
22964;BME280;11648;49.306;6.934;2022-07-29T09:56:00;98209.75;;;44.37;13.31
22964;BME280;11648;49.306;6.934;2022-07-29T09:58:27;98204.34;;;45.86;12.64
22964;BME280;11648;49.306;6.934;2022-07-29T10:00:55;98196.56;;;46.61;12.45
22964;BME280;11648;49.306;6.934;2022-07-29T10:03:22;98209.56;;;45.71;13.17
22964;BME280;11648;49.306;6.934;2022-07-29T10:06:09;98202.38;;;47.48;12.00
22964;BME280;11648;49.306;6.934;2022-07-29T10:08:37;98210.16;;;46.13;12.49
22964;BME280;11648;49.306;6.934;2022-07-29T10:13:37;98207.78;;;46.05;11.80
22964;BME280;11648;49.306;6.934;2022-07-29T10:16:04;98203.00;;;46.17;12.04
22964;BME280;11648;49.306;6.934;2022-07-29T10:18:32;98201.69;;;47.20;11.21
22964;BME280;11648;49.306;6.934;2022-07-29T10:20:59;98190.59;;;48.43;10.13
22964;BME280;11648;49.306;6.934;2022-07-29T10:23:29;98195.88;;;47.04;11.06
22964;BME280;11648;49.306;6.934;2022-07-29T10:26:12;98201.13;;;48.31;10.74
22964;BME280;11648;49.306;6.934;2022-07-29T10:28:39;98193.63;;;48.69;11.17
22964;BME280;11648;49.306;6.934;2022-07-29T10:31:08;98193.22;;;48.87;11.12
22964;BME280;11648;49.306;6.934;2022-07-29T10:36:57;98201.06;;;45.89;12.49
22964;BME280;11648;49.306;6.934;2022-07-29T10:42:20;98209.94;;;42.28;14.97
22964;BME280;11648;49.306;6.934;2022-07-29T10:45:00;98208.59;;;41.62;15.39
22964;BME280;11648;49.306;6.934;2022-07-29T10:47:30;98218.00;;;41.99;15.40
22964;BME280;11648;49.306;6.934;2022-07-29T10:50:00;98205.78;;;42.13;15.16
22964;BME280;11648;49.306;6.934;2022-07-29T10:55:39;98201.75;;;42.71;15.05
22964;BME280;11648;49.306;6.934;2022-07-29T10:58:17;98198.25;;;43.19;14.42
22964;BME280;11648;49.306;6.934;2022-07-29T11:00:49;98198.72;;;42.17;14.56
22964;BME280;11648;49.306;6.934;2022-07-29T11:03:47;98215.13;;;41.16;16.09
22964;BME280;11648;49.306;6.934;2022-07-29T11:06:19;98196.94;;;40.56;15.93
22964;BME280;11648;49.306;6.934;2022-07-29T11:09:18;98202.84;;;40.46;16.05
22964;BME280;11648;49.306;6.934;2022-07-29T11:12:00;98201.97;;;41.12;15.57
22964;BME280;11648;49.306;6.934;2022-07-29T11:14:57;98207.09;;;40.16;16.07
22964;BME280;11648;49.306;6.934;2022-07-29T11:17:25;98202.13;;;39.38;16.46
22964;BME280;11648;49.306;6.934;2022-07-29T11:22:58;98204.88;;;39.85;15.14
22964;BME280;11648;49.306;6.934;2022-07-29T11:25:24;98208.38;;;40.27;14.85
22964;BME280;11648;49.306;6.934;2022-07-29T11:28:18;98204.59;;;39.67;15.36
22964;BME280;11648;49.306;6.934;2022-07-29T11:30:52;98208.34;;;40.14;14.89
22964;BME280;11648;49.306;6.934;2022-07-29T11:33:27;98207.13;;;40.69;15.37
22964;BME280;11648;49.306;6.934;2022-07-29T11:36:14;98209.22;;;40.86;14.44
22964;BME280;11648;49.306;6.934;2022-07-29T11:38:42;98201.63;;;41.97;13.84
22964;BME280;11648;49.306;6.934;2022-07-29T11:49:18;98206.06;;;40.63;14.03
22964;BME280;11648;49.306;6.934;2022-07-29T11:51:54;98205.41;;;40.81;13.92
22964;BME280;11648;49.306;6.934;2022-07-29T11:54:34;98208.81;;;40.30;15.68
22964;BME280;11648;49.306;6.934;2022-07-29T11:57:21;98212.16;;;39.11;16.69
22964;BME280;11648;49.306;6.934;2022-07-29T11:59:48;98217.34;;;38.44;17.56
22964;BME280;11648;49.306;6.934;2022-07-29T12:02:16;98213.69;;;38.58;18.02
22964;BME280;11648;49.306;6.934;2022-07-29T12:05:02;98212.63;;;38.59;18.36
22964;BME280;11648;49.306;6.934;2022-07-29T12:07:37;98212.13;;;39.05;17.26
22964;BME280;11648;49.306;6.934;2022-07-29T12:10:07;98212.34;;;40.11;16.41
22964;BME280;11648;49.306;6.934;2022-07-29T12:12:51;98209.63;;;40.31;16.72
22964;BME280;11648;49.306;6.934;2022-07-29T12:15:18;98205.00;;;40.77;16.33
22964;BME280;11648;49.306;6.934;2022-07-29T12:17:48;98204.25;;;41.21;16.06
22964;BME280;11648;49.306;6.934;2022-07-29T12:20:26;98207.97;;;40.76;16.66
22964;BME280;11648;49.306;6.934;2022-07-29T12:22:55;98218.50;;;40.07;17.05
22964;BME280;11648;49.306;6.934;2022-07-29T12:25:23;98211.38;;;39.65;17.68
22964;BME280;11648;49.306;6.934;2022-07-29T12:28:01;98214.56;;;38.86;18.25
22964;BME280;11648;49.306;6.934;2022-07-29T12:30:54;98213.22;;;38.12;18.81
22964;BME280;11648;49.306;6.934;2022-07-29T12:33:23;98207.97;;;37.75;18.49
22964;BME280;11648;49.306;6.934;2022-07-29T12:35:59;98203.59;;;38.23;17.99
22964;BME280;11648;49.306;6.934;2022-07-29T12:38:42;98203.38;;;38.39;17.29
22964;BME280;11648;49.306;6.934;2022-07-29T12:41:10;98210.31;;;38.14;17.90
22964;BME280;11648;49.306;6.934;2022-07-29T12:43:36;98211.72;;;37.88;18.50
22964;BME280;11648;49.306;6.934;2022-07-29T12:46:13;98215.31;;;37.53;18.52
22964;BME280;11648;49.306;6.934;2022-07-29T12:48:43;98218.84;;;37.32;18.74
22964;BME280;11648;49.306;6.934;2022-07-29T12:51:11;98200.75;;;37.08;18.57
22964;BME280;11648;49.306;6.934;2022-07-29T12:53:38;98204.81;;;37.27;19.08
22964;BME280;11648;49.306;6.934;2022-07-29T12:56:06;98198.81;;;37.89;18.18
22964;BME280;11648;49.306;6.934;2022-07-29T12:59:11;98197.31;;;38.50;18.48
22964;BME280;11648;49.306;6.934;2022-07-29T13:01:38;98204.50;;;37.87;18.03
22964;BME280;11648;49.306;6.934;2022-07-29T13:04:04;98199.78;;;37.96;18.17
22964;BME280;11648;49.306;6.934;2022-07-29T13:06:44;98205.88;;;37.77;18.89
22964;BME280;11648;49.306;6.934;2022-07-29T13:09:18;98206.13;;;37.96;18.36
22964;BME280;11648;49.306;6.934;2022-07-29T13:11:47;98201.66;;;38.17;18.66
22964;BME280;11648;49.306;6.934;2022-07-29T13:14:37;98206.88;;;38.12;18.60
22964;BME280;11648;49.306;6.934;2022-07-29T13:17:08;98205.75;;;37.85;18.52
22964;BME280;11648;49.306;6.934;2022-07-29T13:22:13;98201.28;;;37.33;19.11
22964;BME280;11648;49.306;6.934;2022-07-29T13:25:00;98213.84;;;37.06;19.48
22964;BME280;11648;49.306;6.934;2022-07-29T13:27:30;98211.72;;;36.42;19.69
22964;BME280;11648;49.306;6.934;2022-07-29T13:29:59;98210.44;;;36.52;20.01
22964;BME280;11648;49.306;6.934;2022-07-29T13:32:28;98209.53;;;36.60;19.95
22964;BME280;11648;49.306;6.934;2022-07-29T13:34:56;98209.44;;;36.31;20.80
22964;BME280;11648;49.306;6.934;2022-07-29T13:37:23;98210.56;;;36.36;20.93
22964;BME280;11648;49.306;6.934;2022-07-29T13:39:50;98207.44;;;36.39;20.18
22964;BME280;11648;49.306;6.934;2022-07-29T13:42:19;98214.97;;;36.45;20.33
22964;BME280;11648;49.306;6.934;2022-07-29T13:44:46;98215.91;;;36.52;20.99
22964;BME280;11648;49.306;6.934;2022-07-29T13:47:12;98216.50;;;36.25;20.64
22964;BME280;11648;49.306;6.934;2022-07-29T13:49:39;98210.72;;;36.57;20.61
22964;BME280;11648;49.306;6.934;2022-07-29T13:52:05;98212.38;;;36.44;20.56
22964;BME280;11648;49.306;6.934;2022-07-29T13:54:34;98214.59;;;35.80;20.71
22964;BME280;11648;49.306;6.934;2022-07-29T13:57:08;98211.84;;;35.80;21.00
22964;BME280;11648;49.306;6.934;2022-07-29T13:59:36;98211.66;;;36.04;20.92
22964;BME280;11648;49.306;6.934;2022-07-29T14:02:03;98201.34;;;36.14;21.34
22964;BME280;11648;49.306;6.934;2022-07-29T14:04:32;98201.72;;;36.11;21.84